Time;durP1;ratioP1;P1;durP2;ratioP2;P2;SDS_P1;SDS_P2;PMS_P1;PMS_P2;Temp;Humidity;BMP_temperature;BMP_pressure;BME280_temperature;BME280_humidity;BME280_pressure;Samples;Min_cycle;Max_cycle;Signal;HPM_P1;HPM_P2
2023/11/02 00:01:09;;;;;;;2.05;1.75;;;7.80;99.90;;;;;;5003516;28;20785;-64
2023/11/02 00:03:42;;;;;;;2.75;2.10;;;7.80;99.90;;;;;;5010966;28;20056;-64
2023/11/02 00:06:25;;;;;;;3.67;2.75;;;7.80;99.90;;;;;;4999470;28;20038;-64
2023/11/02 00:09:05;;;;;;;2.97;2.67;;;7.70;99.90;;;;;;5005519;28;20138;-64
2023/11/02 00:11:55;;;;;;;1.70;1.30;;;7.70;99.90;;;;;;5005826;28;20303;-64
2023/11/02 00:14:47;;;;;;;4.95;1.80;;;7.70;99.90;;;;;;5004362;28;20038;-63
2023/11/02 00:17:38;;;;;;;4.03;1.50;;;7.70;99.90;;;;;;5010834;28;20049;-64
2023/11/02 00:20:28;;;;;;;2.22;1.33;;;7.70;99.90;;;;;;5007905;28;20038;-63
2023/11/02 00:23:01;;;;;;;2.55;1.85;;;7.60;99.90;;;;;;5012550;28;20048;-64
2023/11/02 00:25:54;;;;;;;5.57;1.73;;;7.60;99.90;;;;;;5019009;28;20042;-64
2023/11/02 00:28:26;;;;;;;3.00;1.58;;;7.50;99.90;;;;;;5012334;28;20118;-63
2023/11/02 00:30:59;;;;;;;2.55;1.15;;;7.50;99.90;;;;;;5022511;28;20720;-64
2023/11/02 00:33:31;;;;;;;1.27;1.13;;;7.50;99.90;;;;;;5008599;28;20042;-64
2023/11/02 00:36:03;;;;;;;4.47;1.40;;;7.40;99.90;;;;;;5027151;28;20050;-63
2023/11/02 00:38:35;;;;;;;1.98;1.13;;;7.40;99.90;;;;;;5006610;28;20468;-63
2023/11/02 00:41:08;;;;;;;2.53;1.48;;;7.40;99.90;;;;;;5012810;28;20433;-63
2023/11/02 00:43:40;;;;;;;2.58;1.67;;;7.30;99.90;;;;;;5005671;28;20049;-63
2023/11/02 00:46:13;;;;;;;4.03;1.20;;;7.30;99.90;;;;;;5027005;28;20049;-64
2023/11/02 00:48:40;;;;;;;2.53;1.52;;;7.20;99.90;;;;;;5012003;28;20047;-64
2023/11/02 00:51:19;;;;;;;4.07;2.27;;;7.20;99.90;;;;;;5017855;28;20046;-64
2023/11/02 00:54:06;;;;;;;1.60;1.10;;;7.20;99.90;;;;;;5020089;28;20037;-64
2023/11/02 00:56:38;;;;;;;2.90;1.23;;;7.20;99.90;;;;;;5014710;28;20038;-64
2023/11/02 00:59:18;;;;;;;3.53;1.50;;;7.10;99.90;;;;;;5020576;28;20475;-64
2023/11/02 01:01:50;;;;;;;2.90;1.25;;;7.10;99.90;;;;;;5023449;28;20034;-64
2023/11/02 01:04:42;;;;;;;1.60;1.10;;;7.20;99.90;;;;;;5027371;28;20752;-64
2023/11/02 01:07:15;;;;;;;2.78;1.52;;;7.20;99.90;;;;;;5009365;28;20046;-64
2023/11/02 01:09:47;;;;;;;2.10;1.40;;;7.10;99.90;;;;;;5024220;28;20049;-64
2023/11/02 01:12:36;;;;;;;2.00;1.30;;;7.20;99.90;;;;;;5026777;28;20037;-63
2023/11/02 01:15:23;;;;;;;1.98;1.52;;;7.10;99.90;;;;;;5029926;28;20042;-64
2023/11/02 01:17:55;;;;;;;2.58;1.42;;;7.20;99.90;;;;;;5026083;28;20521;-64
2023/11/02 01:21:00;;;;;;;4.60;1.25;;;7.10;99.90;;;;;;5008437;28;20068;-63
2023/11/02 01:23:36;;;;;;;3.85;1.20;;;7.10;99.90;;;;;;5006902;28;20711;-64
2023/11/02 01:26:39;;;;;;;1.95;1.40;;;7.10;99.90;;;;;;5026132;28;20060;-64
2023/11/02 01:29:11;;;;;;;3.08;1.48;;;7.10;99.90;;;;;;5033849;28;20419;-64
2023/11/02 01:31:42;;;;;;;1.30;1.02;;;7.20;99.90;;;;;;5023243;28;20038;-63
2023/11/02 01:34:20;;;;;;;3.58;1.30;;;7.10;99.90;;;;;;5005371;28;20050;-63
2023/11/02 01:36:54;;;;;;;4.03;1.40;;;7.10;99.90;;;;;;5022124;28;20052;-64
2023/11/02 01:39:21;;;;;;;2.05;1.25;;;7.10;99.90;;;;;;5028992;28;20037;-62
2023/11/02 01:42:00;;;;;;;2.97;1.35;;;7.10;99.90;;;;;;5026507;28;20042;-63
2023/11/02 01:44:59;;;;;;;3.40;1.77;;;7.00;99.90;;;;;;5027255;28;20050;-64
2023/11/02 01:47:37;;;;;;;2.10;1.60;;;6.90;99.90;;;;;;5011334;28;20054;-63
2023/11/02 01:50:32;;;;;;;2.25;1.50;;;6.90;99.90;;;;;;5027516;28;20045;-64
2023/11/02 01:53:16;;;;;;;3.20;1.10;;;6.90;99.90;;;;;;5014213;28;20041;-64
2023/11/02 01:55:56;;;;;;;1.63;1.25;;;6.90;99.90;;;;;;5018789;28;20057;-63
2023/11/02 01:58:36;;;;;;;2.00;1.50;;;6.90;99.90;;;;;;5019476;28;20046;-64
2023/11/02 02:01:52;;;;;;;5.47;1.58;;;6.90;99.90;;;;;;5000950;28;20058;-64
2023/11/02 02:04:40;;;;;;;4.68;2.38;;;6.90;99.90;;;;;;5024645;28;20052;-64
2023/11/02 02:07:21;;;;;;;2.67;1.50;;;6.90;99.90;;;;;;5024647;28;20045;-64
2023/11/02 02:10:13;;;;;;;3.00;1.63;;;6.80;99.90;;;;;;5029118;28;20034;-64
2023/11/02 02:12:51;;;;;;;2.03;1.30;;;6.70;99.90;;;;;;5010649;28;20042;-64
2023/11/02 02:15:26;;;;;;;2.20;1.27;;;6.60;99.90;;;;;;5028561;28;20541;-64
2023/11/02 02:18:07;;;;;;;2.33;1.38;;;6.50;99.90;;;;;;5025303;28;20046;-63
2023/11/02 02:20:44;;;;;;;3.25;1.50;;;6.50;99.90;;;;;;5014253;28;20056;-64
2023/11/02 02:23:32;;;;;;;1.90;1.45;;;6.50;99.90;;;;;;5026959;28;20068;-64
2023/11/02 02:26:22;;;;;;;3.42;1.52;;;6.50;99.90;;;;;;5027004;28;20052;-64
2023/11/02 02:28:54;;;;;;;2.28;1.33;;;6.50;99.90;;;;;;5018454;28;20050;-63
2023/11/02 02:32:15;;;;;;;2.17;1.30;;;6.50;99.90;;;;;;5007007;28;20136;-64
2023/11/02 02:35:37;;;;;;;2.83;1.55;;;6.50;99.90;;;;;;5002314;28;20056;-64
2023/11/02 02:38:10;;;;;;;2.22;1.35;;;6.60;99.90;;;;;;4944546;29;20078;-63
2023/11/02 02:40:50;;;;;;;2.10;1.38;;;6.60;99.90;;;;;;4949043;29;20081;-63
2023/11/02 02:43:23;;;;;;;2.22;1.60;;;6.60;99.90;;;;;;4997364;28;20552;-63
2023/11/02 02:45:56;;;;;;;3.22;1.10;;;6.60;99.90;;;;;;5025018;28;20131;-64
2023/11/02 02:48:29;;;;;;;4.88;1.40;;;6.60;99.90;;;;;;5025030;28;20659;-64
2023/11/02 02:51:03;;;;;;;2.53;1.48;;;6.50;99.90;;;;;;5023733;28;20596;-64
2023/11/02 02:53:37;;;;;;;;;;;6.40;99.90;;;;;;5022284;28;20135;-64
2023/11/02 02:56:13;;;;;;;2.00;1.17;;;6.40;99.90;;;;;;5015084;28;20393;-64
2023/11/02 02:58:50;;;;;;;2.17;1.33;;;6.30;99.90;;;;;;5026102;28;20490;-64
2023/11/02 03:01:26;;;;;;;2.72;1.55;;;6.20;99.90;;;;;;5016862;28;20054;-64
2023/11/02 03:03:58;;;;;;;2.53;1.60;;;6.20;99.90;;;;;;5001048;28;20045;-63
2023/11/02 03:06:31;;;;;;;1.58;1.20;;;6.20;99.90;;;;;;5025925;28;20050;-64
2023/11/02 03:09:04;;;;;;;4.28;1.15;;;6.30;99.90;;;;;;5025470;28;20506;-64
2023/11/02 03:11:36;;;;;;;1.48;1.17;;;6.40;99.90;;;;;;5021055;28;20042;-63
2023/11/02 03:14:05;;;;;;;2.17;1.35;;;6.40;99.90;;;;;;5027998;28;20065;-64
2023/11/02 03:16:36;;;;;;;3.63;1.23;;;6.40;99.90;;;;;;5026658;28;20045;-64
2023/11/02 03:19:08;;;;;;;1.92;1.25;;;6.50;99.90;;;;;;5004233;28;20048;-64
2023/11/02 03:21:39;;;;;;;3.72;1.40;;;6.50;99.90;;;;;;5008070;28;20116;-63
2023/11/02 03:24:31;;;;;;;2.85;1.10;;;6.60;99.90;;;;;;5026422;28;20073;-64
2023/11/02 03:27:11;;;;;;;1.67;1.25;;;6.70;99.90;;;;;;5017999;28;20060;-63
2023/11/02 03:30:04;;;;;;;2.38;1.20;;;6.70;99.90;;;;;;5025631;28;20144;-64
2023/11/02 03:32:55;;;;;;;2.83;1.20;;;6.80;99.90;;;;;;5021740;28;20046;-64
2023/11/02 03:35:35;;;;;;;1.40;0.93;;;6.80;99.90;;;;;;5013884;28;20464;-63
2023/11/02 03:38:38;;;;;;;1.92;1.02;;;6.80;99.90;;;;;;5009038;28;20068;-64
2023/11/02 03:41:54;;;;;;;2.95;1.08;;;6.80;99.90;;;;;;5027197;28;20057;-64
2023/11/02 03:44:44;;;;;;;1.50;0.90;;;6.80;99.90;;;;;;5018346;28;20533;-64
2023/11/02 03:47:28;;;;;;;2.42;1.33;;;6.80;99.90;;;;;;5000244;28;20525;-64
2023/11/02 03:50:14;;;;;;;3.63;1.35;;;6.80;99.90;;;;;;5008485;28;20042;-64
2023/11/02 03:53:02;;;;;;;3.28;1.25;;;6.80;99.90;;;;;;5021329;28;20095;-63
2023/11/02 03:55:51;;;;;;;6.18;1.70;;;6.80;99.90;;;;;;5033895;28;20041;-64
2023/11/02 03:58:26;;;;;;;2.40;1.35;;;6.80;99.90;;;;;;5033743;28;20139;-64
2023/11/02 04:01:12;;;;;;;2.13;1.13;;;6.70;99.90;;;;;;5020800;28;20053;-63
2023/11/02 04:03:48;;;;;;;2.42;1.05;;;6.60;99.90;;;;;;5023388;28;20621;-63
2023/11/02 04:06:30;;;;;;;2.60;1.10;;;6.50;99.90;;;;;;5021737;28;20053;-64
2023/11/02 04:09:05;;;;;;;1.70;1.00;;;6.50;99.90;;;;;;5031514;28;20611;-64
2023/11/02 04:11:56;;;;;;;2.45;1.08;;;6.50;99.90;;;;;;5021453;28;20038;-64
2023/11/02 04:14:33;;;;;;;3.28;1.17;;;6.50;99.90;;;;;;5014089;28;20038;-64
2023/11/02 04:17:01;;;;;;;2.05;1.10;;;6.50;99.90;;;;;;5031251;28;20137;-64
2023/11/02 04:19:32;;;;;;;2.50;0.90;;;6.40;99.90;;;;;;5030956;28;20414;-64
2023/11/02 04:22:06;;;;;;;7.07;1.10;;;6.40;99.90;;;;;;5009753;28;20061;-64
2023/11/02 04:24:41;;;;;;;3.33;1.02;;;6.40;99.90;;;;;;5023997;28;20057;-64
2023/11/02 04:27:13;;;;;;;2.30;0.90;;;6.40;99.90;;;;;;5026224;28;20056;-64
2023/11/02 04:29:44;;;;;;;1.65;1.10;;;6.40;99.90;;;;;;5029749;28;20510;-64
2023/11/02 04:32:16;;;;;;;1.75;0.93;;;6.40;99.90;;;;;;5021144;28;20069;-64
2023/11/02 04:34:48;;;;;;;8.27;2.65;;;6.50;99.90;;;;;;5026009;28;20133;-64
2023/11/02 04:37:20;;;;;;;1.90;1.15;;;6.50;99.90;;;;;;5024486;28;20045;-63
2023/11/02 04:39:52;;;;;;;2.25;1.35;;;6.60;99.90;;;;;;4999036;28;20054;-63
2023/11/02 04:42:24;;;;;;;1.80;0.90;;;6.60;99.90;;;;;;5013182;28;20049;-64
2023/11/02 04:44:52;;;;;;;3.28;2.13;;;6.70;99.90;;;;;;5014396;28;20052;-64
2023/11/02 04:47:24;;;;;;;3.22;1.40;;;6.80;99.90;;;;;;5020141;28;20045;-64
2023/11/02 04:49:57;;;;;;;1.98;1.10;;;6.90;99.90;;;;;;5031007;28;20049;-64
2023/11/02 04:52:35;;;;;;;2.22;1.30;;;7.00;99.90;;;;;;5027615;28;20517;-64
2023/11/02 04:55:03;;;;;;;1.55;0.95;;;7.10;99.90;;;;;;5027947;28;20095;-63
2023/11/02 04:57:35;;;;;;;1.17;0.82;;;7.20;99.90;;;;;;5024281;28;20042;-64
2023/11/02 05:00:08;;;;;;;2.13;0.88;;;7.30;99.90;;;;;;5018541;28;20038;-63
2023/11/02 05:02:40;;;;;;;1.20;0.98;;;7.30;99.90;;;;;;5025921;28;20037;-64
2023/11/02 05:05:12;;;;;;;1.48;0.90;;;7.40;99.90;;;;;;5037331;28;20129;-64
2023/11/02 05:07:38;;;;;;;1.85;1.10;;;7.50;99.90;;;;;;5023825;28;20053;-64
2023/11/02 05:10:11;;;;;;;3.90;1.67;;;7.50;99.90;;;;;;5019945;28;20125;-64
2023/11/02 05:12:42;;;;;;;1.92;0.90;;;7.50;99.90;;;;;;5006422;28;20054;-64
2023/11/02 05:15:10;;;;;;;1.27;0.65;;;7.50;99.90;;;;;;5015777;28;20038;-64
2023/11/02 05:17:42;;;;;;;1.42;0.90;;;7.60;99.90;;;;;;5011852;28;20088;-64
2023/11/02 05:20:14;;;;;;;2.50;1.10;;;7.60;99.90;;;;;;5011093;28;20115;-64
2023/11/02 05:22:46;;;;;;;2.03;0.80;;;7.70;99.90;;;;;;5014177;28;20053;-63
2023/11/02 05:25:17;;;;;;;1.95;1.10;;;7.90;99.90;;;;;;5013842;28;20586;-64
2023/11/02 05:27:50;;;;;;;1.20;0.70;;;8.00;99.90;;;;;;5021014;28;20065;-64
2023/11/02 05:30:22;;;;;;;2.85;1.15;;;8.10;99.90;;;;;;5020835;28;20804;-64
2023/11/02 05:32:49;;;;;;;2.17;0.93;;;8.30;99.90;;;;;;5020499;28;20045;-64
2023/11/02 05:35:21;;;;;;;3.35;1.10;;;8.40;99.90;;;;;;5018855;28;20034;-64
2023/11/02 05:37:53;;;;;;;3.08;1.00;;;8.50;99.90;;;;;;5018835;28;20092;-64
2023/11/02 05:40:25;;;;;;;1.80;1.08;;;8.50;99.90;;;;;;5016379;28;20069;-64
2023/11/02 05:42:56;;;;;;;1.90;1.10;;;8.60;99.90;;;;;;5017634;28;20042;-63
2023/11/02 05:45:23;;;;;;;1.27;0.80;;;8.60;99.90;;;;;;5022528;28;20124;-64
2023/11/02 05:47:55;;;;;;;1.08;0.85;;;8.70;99.90;;;;;;5019151;28;20413;-64
2023/11/02 05:50:27;;;;;;;4.40;1.08;;;8.60;99.90;;;;;;5006465;28;20030;-63
2023/11/02 05:52:59;;;;;;;1.45;0.98;;;8.60;99.90;;;;;;5011274;28;20161;-64
2023/11/02 05:55:30;;;;;;;3.15;0.80;;;8.50;99.90;;;;;;5028296;28;20533;-64
2023/11/02 05:58:02;;;;;;;2.40;0.70;;;8.50;99.90;;;;;;5040990;28;20041;-64
2023/11/02 06:00:34;;;;;;;2.80;0.80;;;8.60;99.90;;;;;;5014663;28;20499;-65
2023/11/02 06:03:06;;;;;;;2.17;1.10;;;8.60;99.90;;;;;;5021187;28;20065;-64
2023/11/02 06:05:38;;;;;;;1.45;0.85;;;8.50;99.90;;;;;;5020252;28;20847;-63
2023/11/02 06:08:10;;;;;;;3.88;1.17;;;8.50;99.90;;;;;;5016232;28;20505;-63
2023/11/02 06:10:42;;;;;;;4.63;4.15;;;8.50;99.90;;;;;;5021580;28;20136;-64
2023/11/02 06:13:10;;;;;;;3.20;2.08;;;8.40;99.90;;;;;;5015063;28;20049;-64
2023/11/02 06:15:42;;;;;;;2.05;1.02;;;8.40;99.90;;;;;;5016638;28;20038;-64
2023/11/02 06:18:09;;;;;;;1.42;0.70;;;8.30;99.90;;;;;;5014527;28;20128;-64
2023/11/02 06:20:41;;;;;;;3.60;2.20;;;8.30;99.90;;;;;;5014347;28;20048;-64
2023/11/02 06:23:08;;;;;;;3.83;2.10;;;8.30;99.90;;;;;;5025315;28;20053;-64
2023/11/02 06:25:36;;;;;;;3.78;2.13;;;8.30;99.90;;;;;;5017098;28;20131;-64
2023/11/02 06:28:08;;;;;;;4.00;2.33;;;8.30;99.90;;;;;;5010741;28;20041;-64
2023/11/02 06:30:40;;;;;;;5.55;3.25;;;8.30;99.90;;;;;;5018713;28;20777;-64
2023/11/02 06:33:22;;;;;;;4.20;2.10;;;8.30;99.90;;;;;;5014418;28;20057;-64
2023/11/02 06:35:57;;;;;;;3.33;1.70;;;8.30;99.90;;;;;;5015853;28;20053;-64
2023/11/02 06:38:24;;;;;;;2.55;1.38;;;8.30;99.90;;;;;;5018356;28;20121;-64
2023/11/02 06:40:56;;;;;;;5.68;2.15;;;8.30;99.90;;;;;;5024261;28;20132;-64
2023/11/02 06:43:28;;;;;;;2.03;1.30;;;8.30;99.90;;;;;;5012732;28;20038;-64
2023/11/02 06:46:02;;;;;;;4.93;1.42;;;8.30;99.90;;;;;;5019240;28;20066;-64
2023/11/02 06:48:34;;;;;;;1.70;1.00;;;8.30;99.90;;;;;;5010490;28;20034;-62
2023/11/02 06:51:08;;;;;;;2.85;1.10;;;8.30;99.90;;;;;;5007126;28;20101;-64
2023/11/02 06:53:40;;;;;;;0.98;0.70;;;8.30;99.90;;;;;;5001438;28;20592;-63
2023/11/02 06:56:12;;;;;;;1.83;1.05;;;8.30;99.90;;;;;;5003470;28;20410;-63
2023/11/02 06:58:44;;;;;;;1.60;0.90;;;8.30;99.90;;;;;;5022632;28;20041;-63
2023/11/02 07:01:17;;;;;;;4.35;1.65;;;8.30;99.90;;;;;;5004089;28;20396;-63
2023/11/02 07:03:49;;;;;;;2.13;1.00;;;8.40;99.90;;;;;;5014770;28;20807;-64
2023/11/02 07:06:21;;;;;;;2.53;1.00;;;8.40;99.90;;;;;;5014091;28;20046;-64
2023/11/02 07:08:53;;;;;;;2.78;0.70;;;8.40;99.90;;;;;;5009648;28;20083;-63
2023/11/02 07:11:25;;;;;;;3.22;2.22;;;8.50;99.90;;;;;;5009469;28;20049;-63
2023/11/02 07:13:57;;;;;;;8.85;4.05;;;8.50;99.90;;;;;;5029938;28;20049;-63
2023/11/02 07:16:29;;;;;;;12.45;4.15;;;8.50;99.90;;;;;;5008165;28;20062;-64
2023/11/02 07:19:02;;;;;;;7.30;2.78;;;8.50;99.90;;;;;;5007729;28;20049;-64
2023/11/02 07:21:29;;;;;;;8.77;2.60;;;8.50;99.90;;;;;;5008228;28;20038;-63
2023/11/02 07:23:56;;;;;;;2.60;1.77;;;8.50;99.90;;;;;;5010936;28;20048;-64
2023/11/02 07:26:28;;;;;;;4.65;1.25;;;8.50;99.90;;;;;;5008559;28;20049;-64
2023/11/02 07:29:01;;;;;;;3.58;1.50;;;8.60;99.90;;;;;;5010633;28;20092;-64
2023/11/02 07:31:33;;;;;;;3.47;1.58;;;8.60;99.90;;;;;;5014676;28;20140;-64
2023/11/02 07:34:04;;;;;;;5.43;3.08;;;8.60;99.90;;;;;;5018170;28;20045;-63
2023/11/02 07:36:36;;;;;;;5.50;1.80;;;8.60;99.90;;;;;;4994814;28;20049;-63
2023/11/02 07:39:08;;;;;;;5.70;1.20;;;8.60;99.90;;;;;;5012144;28;20056;-64
2023/11/02 07:41:35;;;;;;;5.20;1.30;;;8.80;99.90;;;;;;5015098;28;20038;-65
2023/11/02 07:44:07;;;;;;;7.20;3.35;;;9.00;99.90;;;;;;5018380;28;20046;-64
2023/11/02 07:46:39;;;;;;;7.93;3.20;;;9.30;99.90;;;;;;4997914;28;20123;-64
2023/11/02 07:49:11;;;;;;;5.05;2.53;;;9.30;99.90;;;;;;5015696;28;20521;-63
2023/11/02 07:51:43;;;;;;;6.03;2.65;;;9.30;99.90;;;;;;5007559;28;20418;-63
2023/11/02 07:54:14;;;;;;;4.68;2.50;;;9.30;99.90;;;;;;5000053;28;20034;-64
2023/11/02 07:56:47;;;;;;;3.15;1.65;;;9.20;99.90;;;;;;5003270;28;20722;-64
2023/11/02 07:59:19;;;;;;;4.55;2.90;;;9.10;99.90;;;;;;5004580;28;20038;-63
2023/11/02 08:01:51;;;;;;;3.80;1.23;;;9.10;99.90;;;;;;5010297;28;20046;-64
2023/11/02 08:04:23;;;;;;;1.88;0.90;;;9.10;99.90;;;;;;5008002;28;20050;-63
2023/11/02 08:06:54;;;;;;;2.03;1.23;;;9.00;99.90;;;;;;5010786;28;20537;-63
2023/11/02 08:09:27;;;;;;;1.65;1.20;;;8.90;99.90;;;;;;5007949;28;20780;-63
2023/11/02 08:11:54;;;;;;;1.83;1.20;;;8.80;99.90;;;;;;5013323;28;20125;-63
2023/11/02 08:14:25;;;;;;;2.97;1.48;;;8.80;99.90;;;;;;5016454;28;20037;-63
2023/11/02 08:16:57;;;;;;;2.40;1.67;;;8.80;99.90;;;;;;5010399;28;20049;-63
2023/11/02 08:19:29;;;;;;;3.67;1.23;;;8.80;99.90;;;;;;5015466;28;20038;-63
2023/11/02 08:22:02;;;;;;;4.05;1.90;;;8.80;99.90;;;;;;5009745;28;20049;-63
2023/11/02 08:24:37;;;;;;;2.38;1.40;;;8.90;99.90;;;;;;5010280;28;20066;-63
2023/11/02 08:27:10;;;;;;;2.38;1.50;;;8.90;99.90;;;;;;5016011;28;20048;-64
2023/11/02 08:29:42;;;;;;;2.22;1.50;;;9.00;99.90;;;;;;5014796;28;20042;-63
2023/11/02 08:32:08;;;;;;;4.00;2.00;;;9.00;99.90;;;;;;5013465;28;20073;-63
2023/11/02 08:34:42;;;;;;;2.92;1.63;;;9.10;99.90;;;;;;5017009;28;20517;-64
2023/11/02 08:37:14;;;;;;;2.70;1.85;;;9.10;99.90;;;;;;5024108;28;20037;-63
2023/11/02 08:39:45;;;;;;;7.13;4.95;;;9.10;99.90;;;;;;5018092;28;20056;-63
2023/11/02 08:42:18;;;;;;;3.63;2.13;;;9.10;99.90;;;;;;5021323;28;20609;-63
2023/11/02 08:44:50;;;;;;;4.80;1.90;;;9.10;99.90;;;;;;5019266;28;20060;-63
2023/11/02 08:47:21;;;;;;;3.42;2.30;;;9.20;99.90;;;;;;5015977;28;20437;-64
2023/11/02 08:49:53;;;;;;;3.47;1.95;;;9.20;99.90;;;;;;5016179;28;20131;-64
2023/11/02 08:52:26;;;;;;;2.50;1.95;;;9.20;99.90;;;;;;5029994;28;20051;-64
2023/11/02 08:55:00;;;;;;;2.83;2.05;;;9.20;99.90;;;;;;5013042;28;20049;-64
2023/11/02 08:57:32;;;;;;;2.45;1.80;;;9.20;99.90;;;;;;5011958;28;20044;-64
2023/11/02 09:00:07;;;;;;;1.92;1.40;;;9.20;99.90;;;;;;5011301;28;20755;-63
2023/11/02 09:02:39;;;;;;;3.67;1.70;;;9.30;99.90;;;;;;5020749;28;20417;-64
2023/11/02 09:05:10;;;;;;;2.25;1.33;;;9.30;99.90;;;;;;5025651;28;20049;-64
2023/11/02 09:07:42;;;;;;;3.40;1.38;;;9.30;99.90;;;;;;5018504;28;20129;-64
2023/11/02 09:10:14;;;;;;;3.88;1.40;;;9.30;99.90;;;;;;5020641;28;20044;-63
2023/11/02 09:12:41;;;;;;;4.63;1.48;;;9.30;99.90;;;;;;5020176;28;20038;-64
2023/11/02 09:15:13;;;;;;;2.03;1.60;;;9.30;99.90;;;;;;5017333;28;20053;-63
2023/11/02 09:17:45;;;;;;;4.63;1.58;;;9.20;99.90;;;;;;5024581;28;20050;-63
2023/11/02 09:20:17;;;;;;;3.10;1.48;;;9.20;99.90;;;;;;5017359;28;20044;-64
2023/11/02 09:22:48;;;;;;;1.90;1.35;;;9.20;99.90;;;;;;5015983;28;20073;-64
2023/11/02 09:25:20;;;;;;;7.25;2.10;;;9.30;99.90;;;;;;5018298;28;20257;-64
2023/11/02 09:27:52;;;;;;;6.80;3.28;;;9.30;99.90;;;;;;5029433;28;20053;-64
2023/11/02 09:30:24;;;;;;;6.35;3.90;;;9.30;99.90;;;;;;5013145;28;20044;-63
2023/11/02 09:32:56;;;;;;;3.13;1.90;;;9.40;99.90;;;;;;5018138;28;20060;-64
2023/11/02 09:35:28;;;;;;;4.10;1.67;;;9.50;99.90;;;;;;5019161;28;20129;-64
2023/11/02 09:38:00;;;;;;;4.38;1.60;;;9.50;99.90;;;;;;5015523;28;20034;-63
2023/11/02 09:40:33;;;;;;;2.92;1.55;;;9.50;99.90;;;;;;5009795;28;20383;-64
2023/11/02 09:43:05;;;;;;;2.75;1.50;;;9.50;99.90;;;;;;5012060;28;20065;-64
2023/11/02 09:45:38;;;;;;;2.30;1.60;;;9.50;99.90;;;;;;5020861;28;20088;-64
2023/11/02 09:48:09;;;;;;;6.32;1.70;;;9.60;99.90;;;;;;5013018;28;20111;-63
2023/11/02 09:50:37;;;;;;;2.50;1.50;;;9.60;99.90;;;;;;5013305;28;20053;-64
2023/11/02 09:53:09;;;;;;;2.40;1.58;;;9.60;99.90;;;;;;5027668;28;20041;-63
2023/11/02 09:55:40;;;;;;;2.63;1.33;;;9.60;99.90;;;;;;5013939;28;20041;-64
2023/11/02 09:58:17;;;;;;;4.65;1.42;;;9.60;99.90;;;;;;5007244;28;20042;-63
2023/11/02 10:00:50;;;;;;;4.03;1.55;;;9.50;99.90;;;;;;5014857;28;20132;-64
2023/11/02 10:03:21;;;;;;;1.77;1.30;;;9.60;99.90;;;;;;5026412;28;20057;-64
2023/11/02 10:05:53;;;;;;;3.47;1.80;;;9.60;99.90;;;;;;5010106;28;20096;-64
2023/11/02 10:08:25;;;;;;;5.40;1.70;;;9.60;99.90;;;;;;5000912;28;20506;-64
2023/11/02 10:11:10;;;;;;;2.47;1.90;;;9.60;99.90;;;;;;5018713;28;20038;-64
2023/11/02 10:13:43;;;;;;;3.25;1.50;;;9.50;99.90;;;;;;5032288;28;20033;-64
2023/11/02 10:16:25;;;;;;;4.00;1.92;;;9.50;99.90;;;;;;5021435;28;20041;-64
2023/11/02 10:18:57;;;;;;;4.20;2.03;;;9.50;99.90;;;;;;5035313;28;20041;-63
2023/11/02 10:21:24;;;;;;;3.40;1.67;;;9.50;99.90;;;;;;5013470;28;20502;-64
2023/11/02 10:23:57;;;;;;;2.10;1.52;;;9.50;99.90;;;;;;5013430;28;20049;-64
2023/11/02 10:26:29;;;;;;;3.92;2.30;;;9.40;99.90;;;;;;5027482;28;20050;-64
2023/11/02 10:29:02;;;;;;;7.28;2.25;;;9.50;99.90;;;;;;5027209;28;20546;-64
2023/11/02 10:31:36;;;;;;;3.30;2.93;;;9.40;99.90;;;;;;5009192;28;20150;-64
2023/11/02 10:34:09;;;;;;;4.22;1.80;;;9.40;99.90;;;;;;5026607;28;20041;-64
2023/11/02 10:36:37;;;;;;;2.88;1.92;;;9.40;99.90;;;;;;5023313;28;20122;-64
2023/11/02 10:39:10;;;;;;;2.97;2.00;;;9.40;99.90;;;;;;5017043;28;20046;-64
2023/11/02 10:41:42;;;;;;;2.40;1.88;;;9.30;99.90;;;;;;5020890;28;20056;-63
2023/11/02 10:44:15;;;;;;;5.38;2.75;;;9.20;99.90;;;;;;5014539;28;20038;-64
2023/11/02 10:46:47;;;;;;;4.22;2.30;;;9.10;99.90;;;;;;5016167;28;20049;-63
2023/11/02 10:49:20;;;;;;;3.30;2.03;;;9.10;99.90;;;;;;5013384;28;20041;-64
2023/11/02 10:51:50;;;;;;;2.47;1.95;;;9.00;99.90;;;;;;5017175;28;20045;-64
2023/11/02 10:54:34;;;;;;;3.90;1.98;;;8.90;99.90;;;;;;5019439;28;20414;-64
2023/11/02 10:57:17;;;;;;;2.63;1.90;;;9.00;99.90;;;;;;5016271;28;20450;-64
2023/11/02 10:59:50;;;;;;;2.72;1.92;;;9.00;99.90;;;;;;5006262;28;20518;-64
2023/11/02 11:02:18;;;;;;;3.83;2.28;;;9.10;99.90;;;;;;5010981;28;20124;-64
2023/11/02 11:04:50;;;;;;;3.50;1.95;;;9.00;99.90;;;;;;5017009;28;20069;-64
2023/11/02 11:07:23;;;;;;;4.28;1.70;;;9.00;99.90;;;;;;5029719;28;20470;-64
2023/11/02 11:09:56;;;;;;;4.38;1.98;;;9.00;99.90;;;;;;5021448;28;20061;-64
2023/11/02 11:12:29;;;;;;;4.82;2.20;;;8.90;99.90;;;;;;5006764;28;20038;-64
2023/11/02 11:14:58;;;;;;;2.42;1.73;;;8.90;99.90;;;;;;5017737;28;20042;-64
2023/11/02 11:17:25;;;;;;;3.15;1.70;;;8.90;99.90;;;;;;5018533;28;20183;-64
2023/11/02 11:19:57;;;;;;;6.65;2.05;;;8.90;99.90;;;;;;5027913;28;20143;-64
2023/11/02 11:22:33;;;;;;;2.85;1.92;;;9.00;99.90;;;;;;5013915;28;20045;-64
2023/11/02 11:25:05;;;;;;;4.10;2.38;;;9.00;99.90;;;;;;5013277;28;20420;-64
2023/11/02 11:27:38;;;;;;;3.73;2.63;;;9.00;99.90;;;;;;5008583;28;20053;-64
2023/11/02 11:30:19;;;;;;;3.80;3.07;;;9.00;99.90;;;;;;5008797;28;20057;-64
2023/11/02 11:32:51;;;;;;;5.30;2.70;;;8.90;99.90;;;;;;5004337;28;20301;-66
2023/11/02 11:35:26;;;;;;;3.47;2.60;;;8.90;99.90;;;;;;5015859;28;20119;-64
2023/11/02 11:37:57;;;;;;;6.35;2.50;;;8.80;99.90;;;;;;5021289;28;20044;-64
2023/11/02 11:40:29;;;;;;;4.13;3.08;;;8.70;99.90;;;;;;5012007;28;20042;-65
2023/11/02 11:46:00;;;;;;;4.90;3.20;;;8.70;99.90;;;;;;5015966;28;20058;-65
2023/11/02 11:48:32;;;;;;;4.20;3.00;;;8.70;99.90;;;;;;5014943;28;20053;-65
2023/11/02 11:50:59;;;;;;;3.72;3.17;;;8.70;99.90;;;;;;5013707;28;20522;-65
2023/11/02 11:53:32;;;;;;;5.70;3.63;;;8.70;99.90;;;;;;5017344;28;20050;-65
2023/11/02 11:56:03;;;;;;;4.88;3.13;;;8.70;99.90;;;;;;5017554;28;20033;-65
2023/11/02 11:58:37;;;;;;;3.25;2.40;;;8.70;99.90;;;;;;5015049;28;20071;-65
2023/11/02 12:01:15;;;;;;;3.50;2.17;;;8.70;99.90;;;;;;5012975;28;20053;-65
2023/11/02 12:03:47;;;;;;;5.50;2.40;;;8.70;99.90;;;;;;5022703;28;20042;-65
2023/11/02 12:06:43;;;;;;;5.33;2.30;;;8.70;99.90;;;;;;5019998;28;20041;-65
2023/11/02 12:09:13;;;;;;;3.28;2.20;;;8.70;99.90;;;;;;5021669;28;20800;-65
2023/11/02 12:11:44;;;;;;;5.10;2.90;;;8.60;99.90;;;;;;5011666;28;20050;-64
2023/11/02 12:14:20;;;;;;;3.40;2.03;;;8.60;99.90;;;;;;5019298;28;20062;-65
2023/11/02 12:16:52;;;;;;;3.90;2.35;;;8.60;99.90;;;;;;5016875;28;20055;-65
2023/11/02 12:19:19;;;;;;;3.17;2.08;;;8.60;99.90;;;;;;5017541;28;20041;-65
2023/11/02 12:21:58;;;;;;;3.20;2.20;;;8.70;99.90;;;;;;5018752;28;20038;-64
2023/11/02 12:24:24;;;;;;;3.47;2.22;;;8.70;99.90;;;;;;5021597;28;20207;-65
2023/11/02 12:27:15;;;;;;;3.47;1.98;;;8.70;99.90;;;;;;5018497;28;20125;-65
2023/11/02 12:29:59;;;;;;;4.53;2.30;;;8.70;99.90;;;;;;5012287;28;20073;-64
2023/11/02 12:32:26;;;;;;;2.60;2.08;;;8.70;99.90;;;;;;5026484;28;20084;-64
2023/11/02 12:34:57;;;;;;;2.33;2.08;;;8.70;99.90;;;;;;5029654;28;20701;-65
2023/11/02 12:37:29;;;;;;;2.75;1.90;;;8.70;99.90;;;;;;5032337;28;20124;-64
2023/11/02 12:40:02;;;;;;;3.88;2.13;;;8.80;99.90;;;;;;5045897;28;20540;-65
2023/11/02 12:42:37;;;;;;;2.53;1.88;;;8.80;99.90;;;;;;5035199;28;20525;-64
2023/11/02 12:45:05;;;;;;;2.75;1.67;;;8.90;99.90;;;;;;5040324;28;20098;-65
2023/11/02 12:47:41;;;;;;;4.55;2.40;;;8.90;99.90;;;;;;5041289;28;20052;-65
2023/11/02 12:50:26;;;;;;;2.15;1.55;;;8.90;99.90;;;;;;5041104;28;20495;-64
2023/11/02 12:52:58;;;;;;;2.97;1.77;;;8.90;99.90;;;;;;5042272;28;20033;-64
2023/11/02 12:55:46;;;;;;;1.88;1.65;;;8.90;99.90;;;;;;5022624;28;20057;-64
2023/11/02 12:58:18;;;;;;;2.78;2.28;;;8.90;99.90;;;;;;5032233;28;20528;-64
2023/11/02 13:00:59;;;;;;;2.30;1.95;;;8.90;99.90;;;;;;5035142;28;20038;-64
2023/11/02 13:03:32;;;;;;;3.72;2.00;;;8.90;99.90;;;;;;5029006;28;20033;-64
2023/11/02 13:05:59;;;;;;;3.10;2.30;;;8.80;99.90;;;;;;5044563;28;20439;-64
2023/11/02 13:08:32;;;;;;;4.03;2.10;;;8.80;99.90;;;;;;5036387;28;20060;-64
2023/11/02 13:11:07;;;;;;;2.38;1.65;;;8.70;99.90;;;;;;5042184;28;20082;-64
2023/11/02 13:13:39;;;;;;;2.47;1.90;;;8.70;99.90;;;;;;5049624;28;20041;-65
2023/11/02 13:16:10;;;;;;;2.22;1.90;;;8.80;99.90;;;;;;5041896;28;20044;-65
2023/11/02 13:18:50;;;;;;;2.20;1.90;;;8.80;99.90;;;;;;5041518;28;20111;-64
2023/11/02 13:21:22;;;;;;;3.13;2.03;;;8.70;99.90;;;;;;5040342;28;20790;-64
2023/11/02 13:23:54;;;;;;;4.75;3.03;;;8.70;99.90;;;;;;5037609;28;20049;-64
2023/11/02 13:26:27;;;;;;;3.38;2.38;;;8.70;99.90;;;;;;5039826;28;20509;-65
2023/11/02 13:28:53;;;;;;;2.70;2.05;;;8.70;99.90;;;;;;5028682;28;20043;-65
2023/11/02 13:31:26;;;;;;;3.20;2.25;;;8.70;99.90;;;;;;5029449;28;20045;-64
2023/11/02 13:33:54;;;;;;;2.78;2.20;;;8.80;99.90;;;;;;5030986;28;20220;-64
2023/11/02 13:36:26;;;;;;;2.85;2.25;;;8.80;99.90;;;;;;5034842;28;20137;-65
2023/11/02 13:38:58;;;;;;;4.72;2.40;;;8.80;99.90;;;;;;5035436;28;20047;-64
2023/11/02 13:41:31;;;;;;;3.78;2.20;;;8.80;99.90;;;;;;5037150;28;20045;-65